sensor_id;sensor_type;location;lat;lon;timestamp;P1;durP1;ratioP1;P2;durP2;ratioP2
57071;SDS011;42956;51.366;11.298;2023-05-01T00:01:09;10.43;;;4.90;;
57071;SDS011;42956;51.366;11.298;2023-05-01T00:03:37;10.13;;;4.88;;
57071;SDS011;42956;51.366;11.298;2023-05-01T00:06:05;11.25;;;5.75;;
57071;SDS011;42956;51.366;11.298;2023-05-01T00:08:33;11.18;;;5.00;;
57071;SDS011;42956;51.366;11.298;2023-05-01T00:11:03;13.70;;;5.22;;
57071;SDS011;42956;51.366;11.298;2023-05-01T00:13:31;7.82;;;4.05;;
57071;SDS011;42956;51.366;11.298;2023-05-01T00:15:59;10.35;;;4.53;;
57071;SDS011;42956;51.366;11.298;2023-05-01T00:18:28;11.52;;;4.53;;
57071;SDS011;42956;51.366;11.298;2023-05-01T00:20:56;11.15;;;4.93;;
57071;SDS011;42956;51.366;11.298;2023-05-01T00:23:24;10.48;;;5.93;;
57071;SDS011;42956;51.366;11.298;2023-05-01T00:25:52;13.63;;;5.78;;
57071;SDS011;42956;51.366;11.298;2023-05-01T00:28:21;9.38;;;5.60;;
57071;SDS011;42956;51.366;11.298;2023-05-01T00:30:49;12.02;;;6.22;;
57071;SDS011;42956;51.366;11.298;2023-05-01T00:33:17;16.35;;;6.75;;
57071;SDS011;42956;51.366;11.298;2023-05-01T00:35:45;11.55;;;7.22;;
57071;SDS011;42956;51.366;11.298;2023-05-01T00:38:13;16.50;;;6.18;;
57071;SDS011;42956;51.366;11.298;2023-05-01T00:40:41;10.85;;;6.35;;
57071;SDS011;42956;51.366;11.298;2023-05-01T00:43:09;15.20;;;6.43;;
57071;SDS011;42956;51.366;11.298;2023-05-01T00:45:40;10.23;;;6.47;;
57071;SDS011;42956;51.366;11.298;2023-05-01T00:48:09;11.98;;;6.38;;
57071;SDS011;42956;51.366;11.298;2023-05-01T00:50:37;10.48;;;6.63;;
57071;SDS011;42956;51.366;11.298;2023-05-01T00:53:06;15.25;;;7.47;;
57071;SDS011;42956;51.366;11.298;2023-05-01T00:55:34;14.02;;;7.35;;
57071;SDS011;42956;51.366;11.298;2023-05-01T00:58:02;15.70;;;6.88;;
57071;SDS011;42956;51.366;11.298;2023-05-01T01:00:30;15.02;;;7.22;;
57071;SDS011;42956;51.366;11.298;2023-05-01T01:02:59;18.25;;;7.10;;
57071;SDS011;42956;51.366;11.298;2023-05-01T01:05:28;14.15;;;7.32;;
57071;SDS011;42956;51.366;11.298;2023-05-01T01:07:58;15.30;;;7.03;;
57071;SDS011;42956;51.366;11.298;2023-05-01T01:10:30;13.43;;;7.60;;
57071;SDS011;42956;51.366;11.298;2023-05-01T01:13:03;14.23;;;7.20;;
57071;SDS011;42956;51.366;11.298;2023-05-01T01:15:34;15.23;;;7.30;;
57071;SDS011;42956;51.366;11.298;2023-05-01T01:18:06;11.32;;;7.35;;
57071;SDS011;42956;51.366;11.298;2023-05-01T01:20:39;19.85;;;10.23;;
57071;SDS011;42956;51.366;11.298;2023-05-01T01:26:03;14.63;;;6.78;;
57071;SDS011;42956;51.366;11.298;2023-05-01T01:28:40;14.18;;;7.22;;
57071;SDS011;42956;51.366;11.298;2023-05-01T01:31:16;13.95;;;7.80;;
57071;SDS011;42956;51.366;11.298;2023-05-01T01:33:49;13.52;;;7.13;;
57071;SDS011;42956;51.366;11.298;2023-05-01T01:36:27;13.30;;;7.05;;
57071;SDS011;42956;51.366;11.298;2023-05-01T01:39:02;13.38;;;7.97;;
57071;SDS011;42956;51.366;11.298;2023-05-01T01:41:33;13.30;;;7.22;;
57071;SDS011;42956;51.366;11.298;2023-05-01T01:44:03;11.05;;;6.80;;
57071;SDS011;42956;51.366;11.298;2023-05-01T01:46:35;18.88;;;8.52;;
57071;SDS011;42956;51.366;11.298;2023-05-01T01:49:06;14.75;;;7.03;;
57071;SDS011;42956;51.366;11.298;2023-05-01T01:51:36;14.43;;;7.53;;
57071;SDS011;42956;51.366;11.298;2023-05-01T01:54:05;11.82;;;6.65;;
57071;SDS011;42956;51.366;11.298;2023-05-01T01:56:33;16.85;;;7.93;;
57071;SDS011;42956;51.366;11.298;2023-05-01T01:59:02;15.18;;;7.57;;
57071;SDS011;42956;51.366;11.298;2023-05-01T02:01:31;16.95;;;7.80;;
57071;SDS011;42956;51.366;11.298;2023-05-01T02:04:00;12.85;;;6.88;;
57071;SDS011;42956;51.366;11.298;2023-05-01T02:06:32;13.40;;;6.85;;
57071;SDS011;42956;51.366;11.298;2023-05-01T02:09:01;12.48;;;8.20;;
57071;SDS011;42956;51.366;11.298;2023-05-01T02:11:32;14.90;;;7.63;;
57071;SDS011;42956;51.366;11.298;2023-05-01T02:14:01;11.40;;;6.63;;
57071;SDS011;42956;51.366;11.298;2023-05-01T02:16:30;12.07;;;7.55;;
57071;SDS011;42956;51.366;11.298;2023-05-01T02:19:00;14.93;;;7.88;;
57071;SDS011;42956;51.366;11.298;2023-05-01T02:21:28;13.32;;;7.30;;
57071;SDS011;42956;51.366;11.298;2023-05-01T02:23:59;12.35;;;7.03;;
57071;SDS011;42956;51.366;11.298;2023-05-01T02:26:27;16.58;;;7.82;;
57071;SDS011;42956;51.366;11.298;2023-05-01T02:28:56;13.23;;;6.97;;
57071;SDS011;42956;51.366;11.298;2023-05-01T02:31:24;15.68;;;7.63;;
57071;SDS011;42956;51.366;11.298;2023-05-01T02:33:53;17.45;;;7.78;;
57071;SDS011;42956;51.366;11.298;2023-05-01T02:36:21;11.48;;;6.45;;
57071;SDS011;42956;51.366;11.298;2023-05-01T02:38:49;10.77;;;6.38;;
57071;SDS011;42956;51.366;11.298;2023-05-01T02:41:18;10.93;;;7.05;;
57071;SDS011;42956;51.366;11.298;2023-05-01T02:43:47;16.98;;;7.05;;
57071;SDS011;42956;51.366;11.298;2023-05-01T02:46:16;11.80;;;6.25;;
57071;SDS011;42956;51.366;11.298;2023-05-01T02:48:45;15.15;;;7.72;;
57071;SDS011;42956;51.366;11.298;2023-05-01T02:51:14;16.58;;;7.53;;
57071;SDS011;42956;51.366;11.298;2023-05-01T02:53:43;13.23;;;8.50;;
57071;SDS011;42956;51.366;11.298;2023-05-01T02:56:11;15.48;;;8.25;;
57071;SDS011;42956;51.366;11.298;2023-05-01T02:58:41;13.75;;;7.22;;
57071;SDS011;42956;51.366;11.298;2023-05-01T03:01:10;11.98;;;7.25;;
57071;SDS011;42956;51.366;11.298;2023-05-01T03:03:38;17.92;;;8.70;;
57071;SDS011;42956;51.366;11.298;2023-05-01T03:06:06;14.60;;;7.65;;
57071;SDS011;42956;51.366;11.298;2023-05-01T03:08:34;13.63;;;7.95;;
57071;SDS011;42956;51.366;11.298;2023-05-01T03:11:03;14.88;;;7.70;;
57071;SDS011;42956;51.366;11.298;2023-05-01T03:13:31;21.50;;;8.23;;
57071;SDS011;42956;51.366;11.298;2023-05-01T03:16:00;13.35;;;7.82;;
57071;SDS011;42956;51.366;11.298;2023-05-01T03:18:30;12.63;;;7.65;;
57071;SDS011;42956;51.366;11.298;2023-05-01T03:20:57;15.57;;;7.50;;
57071;SDS011;42956;51.366;11.298;2023-05-01T03:23:25;12.23;;;7.63;;
57071;SDS011;42956;51.366;11.298;2023-05-01T03:25:54;14.35;;;8.15;;
57071;SDS011;42956;51.366;11.298;2023-05-01T03:28:23;13.50;;;7.22;;
57071;SDS011;42956;51.366;11.298;2023-05-01T03:30:50;20.00;;;8.70;;
57071;SDS011;42956;51.366;11.298;2023-05-01T03:33:19;11.48;;;6.97;;
57071;SDS011;42956;51.366;11.298;2023-05-01T03:35:47;16.92;;;7.72;;
57071;SDS011;42956;51.366;11.298;2023-05-01T03:38:15;16.02;;;8.23;;
57071;SDS011;42956;51.366;11.298;2023-05-01T03:40:43;16.75;;;8.18;;
57071;SDS011;42956;51.366;11.298;2023-05-01T03:43:11;13.40;;;6.78;;
57071;SDS011;42956;51.366;11.298;2023-05-01T03:45:39;15.07;;;7.53;;
57071;SDS011;42956;51.366;11.298;2023-05-01T03:48:10;17.35;;;9.13;;
57071;SDS011;42956;51.366;11.298;2023-05-01T03:50:40;16.17;;;7.53;;
57071;SDS011;42956;51.366;11.298;2023-05-01T03:53:08;13.00;;;7.45;;
57071;SDS011;42956;51.366;11.298;2023-05-01T03:55:36;15.65;;;6.97;;
57071;SDS011;42956;51.366;11.298;2023-05-01T03:58:05;23.40;;;8.50;;
57071;SDS011;42956;51.366;11.298;2023-05-01T04:00:33;12.13;;;7.28;;
57071;SDS011;42956;51.366;11.298;2023-05-01T04:03:01;14.88;;;8.23;;
57071;SDS011;42956;51.366;11.298;2023-05-01T04:05:29;12.40;;;7.88;;
57071;SDS011;42956;51.366;11.298;2023-05-01T04:07:59;14.15;;;7.53;;
57071;SDS011;42956;51.366;11.298;2023-05-01T04:10:27;18.73;;;8.70;;
57071;SDS011;42956;51.366;11.298;2023-05-01T04:12:54;14.90;;;7.72;;
57071;SDS011;42956;51.366;11.298;2023-05-01T04:15:23;14.98;;;7.53;;
57071;SDS011;42956;51.366;11.298;2023-05-01T04:17:51;15.02;;;7.72;;
57071;SDS011;42956;51.366;11.298;2023-05-01T04:20:21;16.40;;;7.30;;
57071;SDS011;42956;51.366;11.298;2023-05-01T04:22:49;14.68;;;8.48;;
57071;SDS011;42956;51.366;11.298;2023-05-01T04:25:18;16.40;;;8.20;;
57071;SDS011;42956;51.366;11.298;2023-05-01T04:27:47;13.00;;;7.00;;
57071;SDS011;42956;51.366;11.298;2023-05-01T04:30:15;18.38;;;7.47;;
57071;SDS011;42956;51.366;11.298;2023-05-01T04:32:43;14.10;;;7.53;;
57071;SDS011;42956;51.366;11.298;2023-05-01T04:35:11;13.80;;;8.23;;
57071;SDS011;42956;51.366;11.298;2023-05-01T04:37:38;16.67;;;8.38;;
57071;SDS011;42956;51.366;11.298;2023-05-01T04:40:07;18.25;;;9.02;;
57071;SDS011;42956;51.366;11.298;2023-05-01T04:42:38;17.00;;;8.20;;
57071;SDS011;42956;51.366;11.298;2023-05-01T04:45:06;18.58;;;8.43;;
57071;SDS011;42956;51.366;11.298;2023-05-01T04:47:34;15.80;;;8.35;;
57071;SDS011;42956;51.366;11.298;2023-05-01T04:50:02;14.60;;;8.50;;
57071;SDS011;42956;51.366;11.298;2023-05-01T04:52:30;15.60;;;8.32;;
57071;SDS011;42956;51.366;11.298;2023-05-01T04:54:58;14.02;;;7.75;;
57071;SDS011;42956;51.366;11.298;2023-05-01T04:57:26;14.15;;;7.78;;
57071;SDS011;42956;51.366;11.298;2023-05-01T04:59:55;19.02;;;8.63;;
57071;SDS011;42956;51.366;11.298;2023-05-01T05:02:24;19.02;;;9.68;;
57071;SDS011;42956;51.366;11.298;2023-05-01T05:04:52;16.00;;;9.05;;
57071;SDS011;42956;51.366;11.298;2023-05-01T05:07:20;17.30;;;9.82;;
57071;SDS011;42956;51.366;11.298;2023-05-01T05:09:48;20.77;;;10.95;;
57071;SDS011;42956;51.366;11.298;2023-05-01T05:12:16;20.50;;;10.35;;
57071;SDS011;42956;51.366;11.298;2023-05-01T05:14:44;18.73;;;10.48;;
57071;SDS011;42956;51.366;11.298;2023-05-01T05:17:14;17.80;;;9.15;;
57071;SDS011;42956;51.366;11.298;2023-05-01T05:19:42;16.60;;;9.75;;
57071;SDS011;42956;51.366;11.298;2023-05-01T05:22:10;16.52;;;8.90;;
57071;SDS011;42956;51.366;11.298;2023-05-01T05:24:38;21.25;;;8.90;;
57071;SDS011;42956;51.366;11.298;2023-05-01T05:27:06;15.18;;;9.00;;
57071;SDS011;42956;51.366;11.298;2023-05-01T05:29:35;13.65;;;8.05;;
57071;SDS011;42956;51.366;11.298;2023-05-01T05:32:02;12.27;;;6.65;;
57071;SDS011;42956;51.366;11.298;2023-05-01T05:34:33;11.65;;;7.30;;
57071;SDS011;42956;51.366;11.298;2023-05-01T05:37:01;13.05;;;7.22;;
57071;SDS011;42956;51.366;11.298;2023-05-01T05:39:28;9.98;;;6.53;;
57071;SDS011;42956;51.366;11.298;2023-05-01T05:41:57;11.48;;;6.10;;
57071;SDS011;42956;51.366;11.298;2023-05-01T05:44:25;14.55;;;6.72;;
57071;SDS011;42956;51.366;11.298;2023-05-01T05:46:53;9.98;;;7.15;;
57071;SDS011;42956;51.366;11.298;2023-05-01T05:49:21;11.70;;;5.88;;
57071;SDS011;42956;51.366;11.298;2023-05-01T05:51:50;11.73;;;6.97;;
57071;SDS011;42956;51.366;11.298;2023-05-01T05:54:18;12.30;;;6.43;;
57071;SDS011;42956;51.366;11.298;2023-05-01T05:56:46;10.68;;;6.60;;
57071;SDS011;42956;51.366;11.298;2023-05-01T05:59:14;12.75;;;7.30;;
57071;SDS011;42956;51.366;11.298;2023-05-01T06:01:43;11.90;;;7.47;;
57071;SDS011;42956;51.366;11.298;2023-05-01T06:04:11;14.45;;;8.18;;
57071;SDS011;42956;51.366;11.298;2023-05-01T06:06:40;13.73;;;7.72;;
57071;SDS011;42956;51.366;11.298;2023-05-01T06:09:10;14.40;;;7.97;;
57071;SDS011;42956;51.366;11.298;2023-05-01T06:11:38;19.40;;;8.57;;
57071;SDS011;42956;51.366;11.298;2023-05-01T06:14:06;14.27;;;8.18;;
57071;SDS011;42956;51.366;11.298;2023-05-01T06:16:34;16.02;;;8.70;;
57071;SDS011;42956;51.366;11.298;2023-05-01T06:19:02;12.95;;;8.32;;
57071;SDS011;42956;51.366;11.298;2023-05-01T06:21:30;14.23;;;7.90;;
57071;SDS011;42956;51.366;11.298;2023-05-01T06:23:59;14.20;;;7.90;;
57071;SDS011;42956;51.366;11.298;2023-05-01T06:26:28;20.45;;;10.30;;
57071;SDS011;42956;51.366;11.298;2023-05-01T06:28:57;17.15;;;9.30;;
57071;SDS011;42956;51.366;11.298;2023-05-01T06:31:24;15.43;;;9.02;;
57071;SDS011;42956;51.366;11.298;2023-05-01T06:33:52;13.88;;;9.90;;
57071;SDS011;42956;51.366;11.298;2023-05-01T06:36:20;13.18;;;8.65;;
57071;SDS011;42956;51.366;11.298;2023-05-01T06:38:49;14.52;;;9.18;;
57071;SDS011;42956;51.366;11.298;2023-05-01T06:41:17;15.98;;;9.48;;
57071;SDS011;42956;51.366;11.298;2023-05-01T06:43:46;15.43;;;8.75;;
57071;SDS011;42956;51.366;11.298;2023-05-01T06:46:14;11.77;;;8.15;;
57071;SDS011;42956;51.366;11.298;2023-05-01T06:48:42;15.88;;;8.95;;
57071;SDS011;42956;51.366;11.298;2023-05-01T06:51:09;16.63;;;9.50;;
57071;SDS011;42956;51.366;11.298;2023-05-01T06:53:40;12.98;;;7.88;;
57071;SDS011;42956;51.366;11.298;2023-05-01T06:56:08;14.40;;;8.98;;
57071;SDS011;42956;51.366;11.298;2023-05-01T06:58:36;21.60;;;9.90;;
57071;SDS011;42956;51.366;11.298;2023-05-01T07:01:05;14.38;;;8.77;;
57071;SDS011;42956;51.366;11.298;2023-05-01T07:03:33;14.65;;;9.70;;
57071;SDS011;42956;51.366;11.298;2023-05-01T07:06:01;17.98;;;9.05;;
57071;SDS011;42956;51.366;11.298;2023-05-01T07:08:29;16.02;;;9.60;;
57071;SDS011;42956;51.366;11.298;2023-05-01T07:10:57;10.90;;;8.38;;
57071;SDS011;42956;51.366;11.298;2023-05-01T07:13:25;15.85;;;9.27;;
57071;SDS011;42956;51.366;11.298;2023-05-01T07:15:53;19.08;;;10.30;;
57071;SDS011;42956;51.366;11.298;2023-05-01T07:18:22;14.20;;;9.32;;
57071;SDS011;42956;51.366;11.298;2023-05-01T07:20:50;14.02;;;8.85;;
57071;SDS011;42956;51.366;11.298;2023-05-01T07:23:18;13.82;;;8.32;;
57071;SDS011;42956;51.366;11.298;2023-05-01T07:25:46;17.02;;;8.88;;
57071;SDS011;42956;51.366;11.298;2023-05-01T07:28:14;20.08;;;9.80;;
57071;SDS011;42956;51.366;11.298;2023-05-01T07:30:43;22.35;;;10.20;;
57071;SDS011;42956;51.366;11.298;2023-05-01T07:33:11;14.32;;;9.27;;
57071;SDS011;42956;51.366;11.298;2023-05-01T07:35:40;12.07;;;8.93;;
57071;SDS011;42956;51.366;11.298;2023-05-01T07:38:08;16.80;;;9.73;;
57071;SDS011;42956;51.366;11.298;2023-05-01T07:40:36;18.50;;;10.45;;
57071;SDS011;42956;51.366;11.298;2023-05-01T07:43:04;16.00;;;10.30;;
57071;SDS011;42956;51.366;11.298;2023-05-01T07:45:32;17.05;;;9.70;;
57071;SDS011;42956;51.366;11.298;2023-05-01T07:48:00;17.27;;;10.10;;
57071;SDS011;42956;51.366;11.298;2023-05-01T07:50:29;12.60;;;9.60;;
57071;SDS011;42956;51.366;11.298;2023-05-01T07:52:58;17.83;;;10.50;;
57071;SDS011;42956;51.366;11.298;2023-05-01T07:55:26;15.55;;;9.95;;
57071;SDS011;42956;51.366;11.298;2023-05-01T07:57:54;14.10;;;9.82;;
57071;SDS011;42956;51.366;11.298;2023-05-01T08:00:22;19.83;;;10.38;;
57071;SDS011;42956;51.366;11.298;2023-05-01T08:02:50;15.27;;;10.52;;
57071;SDS011;42956;51.366;11.298;2023-05-01T08:05:18;16.40;;;9.70;;
57071;SDS011;42956;51.366;11.298;2023-05-01T08:07:46;22.42;;;10.68;;
57071;SDS011;42956;51.366;11.298;2023-05-01T08:10:15;20.20;;;11.05;;
57071;SDS011;42956;51.366;11.298;2023-05-01T08:12:43;21.83;;;11.60;;
57071;SDS011;42956;51.366;11.298;2023-05-01T08:15:11;20.17;;;10.73;;
57071;SDS011;42956;51.366;11.298;2023-05-01T08:17:38;16.65;;;10.85;;
57071;SDS011;42956;51.366;11.298;2023-05-01T08:20:07;19.13;;;10.80;;
57071;SDS011;42956;51.366;11.298;2023-05-01T08:22:35;21.42;;;11.75;;
57071;SDS011;42956;51.366;11.298;2023-05-01T08:25:03;18.75;;;12.75;;
57071;SDS011;42956;51.366;11.298;2023-05-01T08:27:32;21.00;;;12.05;;
57071;SDS011;42956;51.366;11.298;2023-05-01T08:30:00;22.45;;;12.65;;
57071;SDS011;42956;51.366;11.298;2023-05-01T08:32:28;17.23;;;11.77;;
57071;SDS011;42956;51.366;11.298;2023-05-01T08:34:56;15.25;;;10.98;;
57071;SDS011;42956;51.366;11.298;2023-05-01T08:37:25;16.65;;;11.75;;
57071;SDS011;42956;51.366;11.298;2023-05-01T08:39:53;22.98;;;11.75;;
57071;SDS011;42956;51.366;11.298;2023-05-01T08:42:21;15.40;;;9.68;;
57071;SDS011;42956;51.366;11.298;2023-05-01T08:44:51;18.70;;;10.10;;
57071;SDS011;42956;51.366;11.298;2023-05-01T08:47:19;13.98;;;9.13;;
57071;SDS011;42956;51.366;11.298;2023-05-01T08:49:48;21.35;;;10.27;;
57071;SDS011;42956;51.366;11.298;2023-05-01T08:52:17;19.70;;;9.88;;
57071;SDS011;42956;51.366;11.298;2023-05-01T08:54:47;14.93;;;10.13;;
57071;SDS011;42956;51.366;11.298;2023-05-01T08:57:16;16.33;;;10.05;;
57071;SDS011;42956;51.366;11.298;2023-05-01T08:59:44;12.88;;;8.57;;
57071;SDS011;42956;51.366;11.298;2023-05-01T09:02:14;14.00;;;8.52;;
57071;SDS011;42956;51.366;11.298;2023-05-01T09:04:42;17.63;;;8.98;;
57071;SDS011;42956;51.366;11.298;2023-05-01T09:07:11;16.08;;;8.88;;
57071;SDS011;42956;51.366;11.298;2023-05-01T09:09:39;15.15;;;9.50;;
57071;SDS011;42956;51.366;11.298;2023-05-01T09:12:10;17.00;;;8.38;;
57071;SDS011;42956;51.366;11.298;2023-05-01T09:14:39;15.18;;;9.82;;
57071;SDS011;42956;51.366;11.298;2023-05-01T09:17:07;15.45;;;8.48;;
57071;SDS011;42956;51.366;11.298;2023-05-01T09:19:37;13.23;;;8.27;;
57071;SDS011;42956;51.366;11.298;2023-05-01T09:22:06;12.77;;;9.30;;
57071;SDS011;42956;51.366;11.298;2023-05-01T09:24:34;14.73;;;9.32;;
57071;SDS011;42956;51.366;11.298;2023-05-01T09:27:02;13.23;;;9.85;;
57071;SDS011;42956;51.366;11.298;2023-05-01T09:29:36;16.23;;;8.73;;
57071;SDS011;42956;51.366;11.298;2023-05-01T09:32:15;15.85;;;9.45;;
57071;SDS011;42956;51.366;11.298;2023-05-01T09:34:44;16.90;;;9.70;;
57071;SDS011;42956;51.366;11.298;2023-05-01T09:37:13;16.33;;;9.07;;
57071;SDS011;42956;51.366;11.298;2023-05-01T09:40:00;15.85;;;9.63;;
57071;SDS011;42956;51.366;11.298;2023-05-01T09:42:28;16.60;;;8.68;;
57071;SDS011;42956;51.366;11.298;2023-05-01T09:44:57;17.65;;;8.80;;
57071;SDS011;42956;51.366;11.298;2023-05-01T09:47:25;15.93;;;9.10;;
57071;SDS011;42956;51.366;11.298;2023-05-01T09:49:56;17.13;;;9.18;;
57071;SDS011;42956;51.366;11.298;2023-05-01T09:52:25;14.45;;;8.65;;
57071;SDS011;42956;51.366;11.298;2023-05-01T09:55:12;12.85;;;8.23;;
57071;SDS011;42956;51.366;11.298;2023-05-01T09:57:41;23.77;;;9.35;;
57071;SDS011;42956;51.366;11.298;2023-05-01T10:00:09;16.45;;;9.25;;
57071;SDS011;42956;51.366;11.298;2023-05-01T10:02:38;15.60;;;9.32;;
57071;SDS011;42956;51.366;11.298;2023-05-01T10:05:09;14.27;;;8.75;;
57071;SDS011;42956;51.366;11.298;2023-05-01T10:07:37;16.15;;;8.77;;
57071;SDS011;42956;51.366;11.298;2023-05-01T10:10:14;13.70;;;8.80;;
57071;SDS011;42956;51.366;11.298;2023-05-01T10:12:42;13.70;;;8.57;;
57071;SDS011;42956;51.366;11.298;2023-05-01T10:15:10;15.57;;;8.82;;
57071;SDS011;42956;51.366;11.298;2023-05-01T10:17:52;14.43;;;9.05;;
57071;SDS011;42956;51.366;11.298;2023-05-01T10:20:23;18.30;;;9.43;;
57071;SDS011;42956;51.366;11.298;2023-05-01T10:22:51;16.98;;;8.05;;
57071;SDS011;42956;51.366;11.298;2023-05-01T10:25:20;12.68;;;8.75;;
57071;SDS011;42956;51.366;11.298;2023-05-01T10:27:48;13.70;;;8.57;;
57071;SDS011;42956;51.366;11.298;2023-05-01T10:30:18;11.20;;;7.90;;
57071;SDS011;42956;51.366;11.298;2023-05-01T10:32:46;11.57;;;7.53;;
57071;SDS011;42956;51.366;11.298;2023-05-01T10:35:17;13.15;;;8.30;;
57071;SDS011;42956;51.366;11.298;2023-05-01T10:37:48;14.13;;;8.45;;
57071;SDS011;42956;51.366;11.298;2023-05-01T10:43:11;18.73;;;9.65;;
57071;SDS011;42956;51.366;11.298;2023-05-01T10:45:39;11.82;;;8.48;;
57071;SDS011;42956;51.366;11.298;2023-05-01T10:48:07;12.85;;;8.65;;
57071;SDS011;42956;51.366;11.298;2023-05-01T10:53:20;12.63;;;8.00;;
57071;SDS011;42956;51.366;11.298;2023-05-01T10:55:47;12.05;;;7.90;;
57071;SDS011;42956;51.366;11.298;2023-05-01T11:03:47;13.18;;;8.07;;
57071;SDS011;42956;51.366;11.298;2023-05-01T11:06:15;15.98;;;8.05;;
57071;SDS011;42956;51.366;11.298;2023-05-01T11:08:45;10.73;;;7.78;;
57071;SDS011;42956;51.366;11.298;2023-05-01T11:13:59;10.45;;;7.07;;
57071;SDS011;42956;51.366;11.298;2023-05-01T11:16:39;11.40;;;6.82;;
57071;SDS011;42956;51.366;11.298;2023-05-01T11:19:09;8.73;;;5.82;;
57071;SDS011;42956;51.366;11.298;2023-05-01T11:21:37;9.10;;;6.00;;
57071;SDS011;42956;51.366;11.298;2023-05-01T11:24:09;8.60;;;5.88;;
57071;SDS011;42956;51.366;11.298;2023-05-01T11:26:37;8.25;;;5.82;;
57071;SDS011;42956;51.366;11.298;2023-05-01T11:29:05;6.32;;;5.50;;
57071;SDS011;42956;51.366;11.298;2023-05-01T11:31:33;11.90;;;6.57;;
57071;SDS011;42956;51.366;11.298;2023-05-01T11:34:01;7.60;;;6.00;;
57071;SDS011;42956;51.366;11.298;2023-05-01T11:36:45;10.63;;;5.38;;
57071;SDS011;42956;51.366;11.298;2023-05-01T11:39:15;8.70;;;6.00;;
57071;SDS011;42956;51.366;11.298;2023-05-01T11:41:43;7.43;;;5.30;;
57071;SDS011;42956;51.366;11.298;2023-05-01T11:44:13;8.95;;;5.35;;
57071;SDS011;42956;51.366;11.298;2023-05-01T11:46:41;7.03;;;5.60;;
57071;SDS011;42956;51.366;11.298;2023-05-01T11:49:09;10.02;;;5.45;;
57071;SDS011;42956;51.366;11.298;2023-05-01T11:51:37;12.30;;;6.00;;
57071;SDS011;42956;51.366;11.298;2023-05-01T11:54:06;9.52;;;6.97;;
57071;SDS011;42956;51.366;11.298;2023-05-01T11:56:36;9.63;;;5.97;;
57071;SDS011;42956;51.366;11.298;2023-05-01T11:59:10;9.77;;;5.68;;
57071;SDS011;42956;51.366;11.298;2023-05-01T12:01:38;10.75;;;6.50;;
57071;SDS011;42956;51.366;11.298;2023-05-01T12:04:06;9.32;;;5.88;;
57071;SDS011;42956;51.366;11.298;2023-05-01T12:06:35;11.80;;;6.80;;
57071;SDS011;42956;51.366;11.298;2023-05-01T12:09:06;12.40;;;6.95;;
57071;SDS011;42956;51.366;11.298;2023-05-01T12:11:34;11.57;;;6.32;;
57071;SDS011;42956;51.366;11.298;2023-05-01T12:14:04;8.32;;;6.40;;
57071;SDS011;42956;51.366;11.298;2023-05-01T12:16:32;9.20;;;6.30;;
57071;SDS011;42956;51.366;11.298;2023-05-01T12:19:00;9.13;;;6.30;;
57071;SDS011;42956;51.366;11.298;2023-05-01T12:21:28;11.07;;;6.53;;
57071;SDS011;42956;51.366;11.298;2023-05-01T12:24:06;8.30;;;6.13;;
57071;SDS011;42956;51.366;11.298;2023-05-01T12:26:34;15.15;;;6.65;;
57071;SDS011;42956;51.366;11.298;2023-05-01T12:29:04;9.07;;;6.40;;
57071;SDS011;42956;51.366;11.298;2023-05-01T12:31:33;9.00;;;6.05;;
57071;SDS011;42956;51.366;11.298;2023-05-01T12:34:02;11.73;;;6.88;;
57071;SDS011;42956;51.366;11.298;2023-05-01T12:36:31;11.63;;;6.28;;
57071;SDS011;42956;51.366;11.298;2023-05-01T12:38:59;9.73;;;7.25;;
57071;SDS011;42956;51.366;11.298;2023-05-01T12:41:31;10.82;;;6.35;;
57071;SDS011;42956;51.366;11.298;2023-05-01T12:44:00;12.27;;;7.25;;
57071;SDS011;42956;51.366;11.298;2023-05-01T12:46:29;9.25;;;6.47;;
57071;SDS011;42956;51.366;11.298;2023-05-01T12:49:00;9.88;;;7.03;;
57071;SDS011;42956;51.366;11.298;2023-05-01T12:51:28;13.88;;;7.53;;
57071;SDS011;42956;51.366;11.298;2023-05-01T12:53:57;9.63;;;7.03;;
57071;SDS011;42956;51.366;11.298;2023-05-01T12:56:24;11.98;;;7.32;;
57071;SDS011;42956;51.366;11.298;2023-05-01T12:58:52;7.72;;;6.55;;
57071;SDS011;42956;51.366;11.298;2023-05-01T13:01:24;10.70;;;7.03;;
57071;SDS011;42956;51.366;11.298;2023-05-01T13:03:54;11.65;;;6.68;;
57071;SDS011;42956;51.366;11.298;2023-05-01T13:06:30;9.48;;;6.80;;
57071;SDS011;42956;51.366;11.298;2023-05-01T13:09:05;9.45;;;6.55;;
57071;SDS011;42956;51.366;11.298;2023-05-01T13:11:34;9.77;;;6.15;;
57071;SDS011;42956;51.366;11.298;2023-05-01T13:14:05;10.25;;;6.38;;
57071;SDS011;42956;51.366;11.298;2023-05-01T13:16:41;10.80;;;6.10;;
57071;SDS011;42956;51.366;11.298;2023-05-01T13:19:11;8.23;;;5.65;;
57071;SDS011;42956;51.366;11.298;2023-05-01T13:21:45;7.57;;;5.57;;
57071;SDS011;42956;51.366;11.298;2023-05-01T13:24:13;10.15;;;6.13;;
57071;SDS011;42956;51.366;11.298;2023-05-01T13:26:41;9.35;;;6.07;;
57071;SDS011;42956;51.366;11.298;2023-05-01T13:29:12;11.13;;;6.78;;
57071;SDS011;42956;51.366;11.298;2023-05-01T13:31:41;8.48;;;5.45;;
57071;SDS011;42956;51.366;11.298;2023-05-01T13:34:10;8.90;;;6.13;;
57071;SDS011;42956;51.366;11.298;2023-05-01T13:36:39;9.63;;;6.07;;
57071;SDS011;42956;51.366;11.298;2023-05-01T13:39:09;9.20;;;6.22;;
57071;SDS011;42956;51.366;11.298;2023-05-01T13:41:41;7.85;;;5.95;;
57071;SDS011;42956;51.366;11.298;2023-05-01T13:44:09;8.43;;;5.43;;
57071;SDS011;42956;51.366;11.298;2023-05-01T13:46:38;9.65;;;5.80;;
57071;SDS011;42956;51.366;11.298;2023-05-01T13:49:07;10.07;;;5.72;;
57071;SDS011;42956;51.366;11.298;2023-05-01T13:51:36;11.05;;;6.35;;
57071;SDS011;42956;51.366;11.298;2023-05-01T13:54:09;7.78;;;6.60;;
57071;SDS011;42956;51.366;11.298;2023-05-01T13:56:38;8.02;;;5.80;;
57071;SDS011;42956;51.366;11.298;2023-05-01T13:59:07;8.50;;;6.43;;
57071;SDS011;42956;51.366;11.298;2023-05-01T14:01:37;7.63;;;5.75;;
57071;SDS011;42956;51.366;11.298;2023-05-01T14:04:07;9.98;;;6.50;;
57071;SDS011;42956;51.366;11.298;2023-05-01T14:06:35;8.20;;;5.78;;
57071;SDS011;42956;51.366;11.298;2023-05-01T14:09:09;11.60;;;6.63;;
57071;SDS011;42956;51.366;11.298;2023-05-01T14:11:42;12.98;;;6.43;;
57071;SDS011;42956;51.366;11.298;2023-05-01T14:14:11;11.60;;;6.03;;
57071;SDS011;42956;51.366;11.298;2023-05-01T14:16:39;9.98;;;5.95;;
57071;SDS011;42956;51.366;11.298;2023-05-01T14:19:07;9.18;;;5.95;;
57071;SDS011;42956;51.366;11.298;2023-05-01T14:21:37;8.00;;;6.00;;
57071;SDS011;42956;51.366;11.298;2023-05-01T14:24:06;9.13;;;6.15;;
57071;SDS011;42956;51.366;11.298;2023-05-01T14:26:36;7.15;;;5.65;;
57071;SDS011;42956;51.366;11.298;2023-05-01T14:29:05;9.07;;;6.18;;
57071;SDS011;42956;51.366;11.298;2023-05-01T14:31:34;7.25;;;5.57;;
57071;SDS011;42956;51.366;11.298;2023-05-01T14:34:02;13.27;;;6.30;;
57071;SDS011;42956;51.366;11.298;2023-05-01T14:36:31;9.20;;;6.18;;
57071;SDS011;42956;51.366;11.298;2023-05-01T14:39:00;11.60;;;6.13;;
57071;SDS011;42956;51.366;11.298;2023-05-01T14:41:28;8.88;;;6.15;;
57071;SDS011;42956;51.366;11.298;2023-05-01T14:43:58;11.38;;;5.82;;
57071;SDS011;42956;51.366;11.298;2023-05-01T14:46:27;8.75;;;5.93;;
57071;SDS011;42956;51.366;11.298;2023-05-01T14:48:56;10.70;;;6.38;;
57071;SDS011;42956;51.366;11.298;2023-05-01T14:51:25;7.35;;;5.25;;